JOHN F KENNEDY INTL

KJFK (JFK)
New York, New York
Towered

Vatsim Metar:
KJFK 190951Z 21005KT 10SM SCT180 23/23 A2999 RMK AO2 SLP156 T02330233

No ATC Online

Traffic

Inbound:
Ident
Type
Name
ETA
Phase
UAL275
H/B763/L
Janis
12:01 Z
Cruse
CLX4526
H/B748/L
Syed Arbaz Rasheed OMDB
12:22 Z
Cruse
ANZ001
H/B748/L
Berry Dakkus EHAM
Unknown
CPA98
H/B748/L
Wilson Wong VHHH
13:27 Z
Cruse
BAW787
B772
Barney Adlington EGLL
14:26 Z
Cruse
SAS2705
B763/L
Aleksandr Garashov
14:50 Z
Cruse
CPA830
H/B77W/L
Alec Stelloh
15:35 Z
Cruse

Outbound:
Ident
Type
Name
Destination
Phase
ELY004
H/B744
Dylan Robertson EGFF
LLBG
Climb